Time;durP1;ratioP1;P1;durP2;ratioP2;P2;SDS_P1;SDS_P2;PMS_P1;PMS_P2;Temp;Humidity;BMP_temperature;BMP_pressure;BME280_temperature;BME280_humidity;BME280_pressure;Samples;Min_cycle;Max_cycle;Signal;HPM_P1;HPM_P2
2023/01/16 00:02:13;;;;;;;5.63;2.70;;;;;;;7.61;67.94;99595.19;4938895;28;20122;-38
2023/01/16 00:04:38;;;;;;;5.53;2.63;;;;;;;7.46;68.88;99589.03;4943397;28;20047;-41
2023/01/16 00:07:03;;;;;;;4.30;2.90;;;;;;;7.43;68.66;99584.72;4939872;28;20043;-43
2023/01/16 00:09:29;;;;;;;4.50;2.53;;;;;;;7.50;69.02;99575.25;4943198;28;20494;-42
2023/01/16 00:11:54;;;;;;;8.45;2.47;;;;;;;7.43;69.81;99570.88;4938673;28;20401;-44
2023/01/16 00:14:19;;;;;;;5.55;2.30;;;;;;;7.51;68.92;99564.00;4942817;28;20035;-42
2023/01/16 00:16:45;;;;;;;5.22;2.30;;;;;;;7.57;68.97;99554.50;4942790;28;20039;-42
2023/01/16 00:19:10;;;;;;;6.15;2.13;;;;;;;7.55;68.51;99547.59;4939312;28;20043;-40
2023/01/16 00:21:35;;;;;;;4.85;2.50;;;;;;;7.52;69.21;99548.44;4942669;28;20477;-41
2023/01/16 00:24:01;;;;;;;5.15;2.20;;;;;;;7.44;68.76;99563.09;4939320;28;20157;-41
2023/01/16 00:26:28;;;;;;;8.32;2.50;;;;;;;7.29;70.02;99552.66;4942694;28;20551;-41
2023/01/16 00:28:53;;;;;;;5.65;2.55;;;;;;;7.52;68.90;99539.78;4939380;28;20043;-38
2023/01/16 00:31:19;;;;;;;5.32;2.95;;;;;;;7.36;69.55;99538.00;4942123;28;20042;-41
2023/01/16 00:33:44;;;;;;;6.25;2.83;;;;;;;7.50;69.31;99539.78;4942520;28;20035;-42
2023/01/16 00:36:11;;;;;;;7.07;3.30;;;;;;;7.52;69.80;99535.47;4939233;28;20039;-43
2023/01/16 00:38:37;;;;;;;7.60;3.10;;;;;;;7.63;69.85;99527.72;4941413;28;20547;-42
2023/01/16 00:41:03;;;;;;;5.50;3.20;;;;;;;7.64;70.02;99521.69;4939400;28;20071;-41
2023/01/16 00:43:28;;;;;;;7.75;3.10;;;;;;;7.81;69.50;99516.56;4943329;28;20412;-39
2023/01/16 00:45:53;;;;;;;6.30;3.20;;;;;;;7.74;69.39;99507.91;4940661;28;20036;-44
2023/01/16 00:48:19;;;;;;;6.10;3.10;;;;;;;7.59;70.16;99506.13;4943189;28;20066;-43
2023/01/16 00:50:44;;;;;;;6.38;3.20;;;;;;;7.72;68.88;99502.72;4943316;28;20050;-43
2023/01/16 00:53:09;;;;;;;5.10;2.90;;;;;;;7.77;68.11;99494.94;4940870;28;20122;-40
2023/01/16 00:55:36;;;;;;;7.07;3.10;;;;;;;7.70;68.28;99494.03;4943540;28;20050;-44
2023/01/16 00:58:02;;;;;;;6.22;3.20;;;;;;;7.52;69.35;99485.34;4990502;23;20076;-47
2023/01/16 01:00:28;;;;;;;7.03;3.28;;;;;;;7.56;69.06;99472.38;5030184;28;20037;-41
2023/01/16 01:02:53;;;;;;;8.43;3.00;;;;;;;7.57;68.94;99473.25;5019548;28;20041;-41
2023/01/16 01:05:19;;;;;;;12.30;3.45;;;;;;;7.50;68.88;99455.97;5024262;28;20496;-42
2023/01/16 01:07:44;;;;;;;6.38;2.90;;;;;;;7.31;69.96;99450.72;5024216;28;20034;-41
2023/01/16 01:10:10;;;;;;;7.65;3.30;;;;;;;7.28;69.90;99453.28;5019027;28;20040;-42
2023/01/16 01:12:35;;;;;;;7.32;3.08;;;;;;;7.38;69.76;99461.13;5022226;28;20294;-41
2023/01/16 01:15:01;;;;;;;8.23;3.20;;;;;;;7.37;69.47;99442.09;5019679;28;20567;-42
2023/01/16 01:17:26;;;;;;;7.60;3.13;;;;;;;7.26;69.48;99436.84;5023043;28;20159;-41
2023/01/16 01:19:52;;;;;;;11.48;3.20;;;;;;;7.27;69.77;99425.63;5020152;28;20048;-43
2023/01/16 01:22:17;;;;;;;6.93;3.13;;;;;;;7.31;69.92;99419.63;5022672;28;20071;-42
2023/01/16 01:24:46;;;;;;;10.95;3.78;;;;;;;7.36;70.45;99426.53;5024563;28;20048;-45
2023/01/16 01:27:11;;;;;;;10.35;3.90;;;;;;;7.41;70.40;99422.22;5019065;28;24382;-42
2023/01/16 01:29:37;;;;;;;10.15;4.00;;;;;;;7.23;71.02;99416.13;5023035;28;20060;-42
2023/01/16 01:32:02;;;;;;;12.82;4.35;;;;;;;7.47;70.63;99419.63;5021384;28;20037;-42
2023/01/16 01:34:31;;;;;;;13.40;4.70;;;;;;;7.40;70.06;99413.56;5025782;28;20029;-41
2023/01/16 01:36:56;;;;;;;9.30;4.57;;;;;;;7.53;69.72;99402.38;5021168;28;20113;-43
2023/01/16 01:39:21;;;;;;;11.57;4.80;;;;;;;7.42;69.45;99393.69;5039831;28;20121;-42
2023/01/16 01:41:47;;;;;;;13.07;5.22;;;;;;;7.42;69.92;99388.53;5023091;28;20091;-44
2023/01/16 01:44:47;;;;;;;15.65;5.63;;;;;;;7.42;70.01;99379.88;5018910;28;20476;-43
2023/01/16 01:47:14;;;;;;;12.32;5.03;;;;;;;7.41;70.20;99386.78;5018417;28;20504;-44
2023/01/16 01:49:39;;;;;;;11.27;5.80;;;;;;;7.37;70.39;99371.22;5020952;28;20038;-45
2023/01/16 01:52:07;;;;;;;12.35;5.88;;;;;;;7.33;70.42;99371.19;5018011;28;20242;-41
2023/01/16 01:54:37;;;;;;;11.70;6.15;;;;;;;7.36;70.68;99367.75;5025903;28;20120;-42
2023/01/16 01:57:28;;;;;;;12.30;5.82;;;;;;;7.58;70.57;99360.88;5022174;28;20053;-42
2023/01/16 02:00:16;;;;;;;13.30;5.65;;;;;;;7.68;70.86;99358.28;5022041;28;20036;-42
2023/01/16 02:02:47;;;;;;;16.80;5.93;;;;;;;7.62;71.25;99345.31;5026321;28;20041;-43
2023/01/16 02:05:19;;;;;;;12.50;6.28;;;;;;;7.80;71.03;99338.44;5022585;28;20037;-45
2023/01/16 02:07:44;;;;;;;12.40;6.07;;;;;;;7.94;70.42;99328.88;5026516;28;20033;-45
2023/01/16 02:10:21;;;;;;;14.38;6.45;;;;;;;7.68;70.55;99329.75;5022002;28;20445;-38
2023/01/16 02:12:47;;;;;;;14.40;6.10;;;;;;;7.82;70.32;99327.16;5025666;28;20079;-43
2023/01/16 02:15:13;;;;;;;12.23;6.50;;;;;;;7.69;70.47;99328.91;5021661;28;20030;-46
2023/01/16 02:20:32;;;;;;;14.60;6.35;;;;;;;7.86;70.00;99323.72;5021192;28;20044;-43
2023/01/16 02:23:25;;;;;;;13.77;5.95;;;;;;;7.88;69.52;99324.56;5021195;28;20033;-45
2023/01/16 02:26:18;;;;;;;14.52;5.93;;;;;;;7.98;68.89;99315.06;5025726;28;20037;-45
2023/01/16 02:29:18;;;;;;;9.15;5.03;;;;;;;7.83;69.15;99313.34;5021988;28;20037;-43
2023/01/16 02:32:02;;;;;;;9.50;4.47;;;;;;;7.76;69.28;99309.00;5004676;28;20041;-42
2023/01/16 02:34:57;;;;;;;11.05;4.50;;;;;;;7.70;69.19;99302.09;5021553;28;20036;-41
2023/01/16 02:37:41;;;;;;;11.55;4.30;;;;;;;7.79;69.09;99302.97;5023929;28;20083;-45
2023/01/16 02:40:37;;;;;;;7.22;3.67;;;;;;;7.59;69.61;99275.31;5023513;28;20568;-45
2023/01/16 02:43:19;;;;;;;9.68;3.50;;;;;;;7.54;69.94;99270.97;5024447;28;20049;-41
2023/01/16 02:45:47;;;;;;;7.78;3.47;;;;;;;7.72;69.21;99258.88;5021537;28;20034;-43
2023/01/16 02:48:48;;;;;;;8.68;3.55;;;;;;;7.77;69.10;99248.47;5021034;28;20037;-46
2023/01/16 02:51:22;;;;;;;8.73;3.25;;;;;;;7.71;69.25;99246.75;5020543;28;20550;-45
2023/01/16 02:53:53;;;;;;;8.48;3.13;;;;;;;7.63;69.63;99235.53;5023264;28;20052;-43
2023/01/16 02:56:27;;;;;;;6.03;2.60;;;;;;;7.72;68.87;99226.88;5021129;28;20080;-44
2023/01/16 02:58:53;;;;;;;9.50;2.92;;;;;;;7.54;69.35;99212.22;5032338;28;20037;-42
2023/01/16 03:01:19;;;;;;;9.95;3.13;;;;;;;7.76;68.70;99210.44;5037123;28;20044;-42
2023/01/16 03:04:04;;;;;;;7.93;3.00;;;;;;;7.69;68.67;99209.56;5031049;28;20403;-45
2023/01/16 03:06:52;;;;;;;;;;;;;;;7.71;68.75;99205.25;5019743;28;20076;-45
2023/01/16 03:09:38;;;;;;;5.85;2.35;;;;;;;7.67;68.38;99197.50;5014962;28;19920;-42
2023/01/16 03:12:19;;;;;;;7.50;2.80;;;;;;;7.70;68.34;99192.28;5019791;28;20041;-47
2023/01/16 03:14:59;;;;;;;5.63;2.13;;;;;;;7.64;68.69;99195.75;5024483;28;20037;-43
2023/01/16 03:18:02;;;;;;;7.15;2.17;;;;;;;7.67;68.63;99192.31;5020652;28;20041;-45
2023/01/16 03:20:46;;;;;;;6.05;1.90;;;;;;;7.71;68.35;99175.88;5019838;28;20136;-43
2023/01/16 03:23:40;;;;;;;4.97;1.83;;;;;;;7.63;68.63;99169.81;5020807;28;20053;-42
2023/01/16 03:26:15;;;;;;;8.02;2.20;;;;;;;7.61;68.96;99156.00;5020995;28;20033;-43
2023/01/16 03:28:51;;;;;;;7.32;2.80;;;;;;;7.53;69.83;99152.56;5025809;28;20507;-43
2023/01/16 03:31:33;;;;;;;6.03;2.50;;;;;;;7.70;68.94;99150.78;5022517;28;20036;-41
2023/01/16 03:34:28;;;;;;;10.65;3.10;;;;;;;7.81;68.46;99143.00;5022637;28;20039;-41
2023/01/16 03:36:59;;;;;;;7.15;3.15;;;;;;;7.32;69.63;99140.47;5020389;28;20033;-44
2023/01/16 03:39:33;;;;;;;8.65;3.38;;;;;;;7.67;68.92;99130.94;5024503;28;20569;-41
2023/01/16 03:42:05;;;;;;;8.15;3.22;;;;;;;7.53;69.45;99127.50;5019874;28;20451;-43
2023/01/16 03:44:37;;;;;;;9.00;3.67;;;;;;;7.70;68.70;99117.06;5024032;28;20116;-42
2023/01/16 03:47:07;;;;;;;7.53;3.33;;;;;;;7.70;68.79;99110.16;5019939;28;20078;-45
2023/01/16 03:49:47;;;;;;;6.10;3.13;;;;;;;7.55;69.10;99102.44;5024560;28;20065;-44
2023/01/16 03:52:15;;;;;;;7.22;3.03;;;;;;;7.71;68.48;99095.44;5019471;28;20041;-44
2023/01/16 03:55:19;;;;;;;9.40;3.30;;;;;;;7.75;68.29;99085.06;5023706;28;20041;-42
2023/01/16 03:57:50;;;;;;;5.57;3.10;;;;;;;7.43;69.90;99073.09;5020860;28;20044;-44
2023/01/16 04:00:18;;;;;;;9.95;3.42;;;;;;;7.70;69.10;99058.28;5021828;28;20104;-41
2023/01/16 04:02:54;;;;;;;7.60;3.45;;;;;;;7.94;68.47;99056.44;5026725;28;20511;-46
2023/01/16 04:05:35;;;;;;;8.00;3.30;;;;;;;8.01;68.07;99043.44;5022963;28;20033;-41
2023/01/16 04:08:07;;;;;;;8.00;2.92;;;;;;;7.85;68.54;99038.34;5022418;28;20046;-43
2023/01/16 04:10:36;;;;;;;6.75;2.90;;;;;;;8.05;67.92;99021.75;5026340;28;20041;-40
2023/01/16 04:13:08;;;;;;;10.20;3.20;;;;;;;8.07;67.74;99011.38;5026851;28;20069;-43
2023/01/16 04:15:37;;;;;;;6.53;2.72;;;;;;;7.63;68.59;99001.25;5021981;28;20131;-43
2023/01/16 04:18:02;;;;;;;7.20;2.40;;;;;;;7.90;67.39;98995.94;5022231;28;20037;-41
2023/01/16 04:20:29;;;;;;;6.82;2.70;;;;;;;8.05;67.17;98989.78;5025955;28;20037;-42
2023/01/16 04:22:55;;;;;;;8.38;2.95;;;;;;;7.96;67.78;98982.91;5022758;28;20280;-42
2023/01/16 04:25:21;;;;;;;7.72;3.13;;;;;;;7.67;68.21;98982.22;5026744;28;20041;-45
2023/01/16 04:27:46;;;;;;;6.82;2.63;;;;;;;7.53;69.06;98976.25;5025199;28;20120;-43
2023/01/16 04:30:12;;;;;;;5.55;2.65;;;;;;;7.54;68.71;98967.59;5019906;28;20041;-44
2023/01/16 04:32:38;;;;;;;4.45;2.20;;;;;;;7.87;67.88;98951.00;5023282;28;20049;-41
2023/01/16 04:35:04;;;;;;;6.60;2.20;;;;;;;7.72;68.53;98954.53;5020080;28;20041;-41
2023/01/16 04:37:30;;;;;;;5.13;1.90;;;;;;;7.83;67.75;98938.88;5023153;28;20132;-43
2023/01/16 04:39:55;;;;;;;7.72;2.05;;;;;;;7.63;68.76;98939.00;5020512;28;20113;-46
2023/01/16 04:42:21;;;;;;;4.70;1.55;;;;;;;7.53;68.70;98929.56;5022362;28;20060;-43
2023/01/16 04:44:46;;;;;;;5.05;1.58;;;;;;;7.52;69.02;98920.91;5022838;28;20044;-41
2023/01/16 04:47:12;;;;;;;5.60;1.65;;;;;;;7.84;67.69;98910.34;5018808;28;20072;-42
2023/01/16 04:49:37;;;;;;;4.72;1.50;;;;;;;7.38;69.21;98901.97;5023050;28;20041;-45
2023/01/16 04:52:03;;;;;;;4.55;1.90;;;;;;;7.52;69.18;98886.34;5018584;28;20463;-42
2023/01/16 04:54:28;;;;;;;6.82;1.70;;;;;;;7.33;69.37;98881.28;5023146;28;20087;-41
2023/01/16 04:56:54;;;;;;;5.68;1.55;;;;;;;7.68;68.91;98869.84;5019379;28;20403;-43
2023/01/16 04:59:19;;;;;;;4.55;1.63;;;;;;;7.61;68.14;98862.97;5023393;28;20289;-39
2023/01/16 05:01:45;;;;;;;5.25;1.38;;;;;;;7.42;69.05;98851.84;5022263;28;20124;-42
2023/01/16 05:04:12;;;;;;;8.82;1.88;;;;;;;7.51;68.65;98846.59;5019241;28;20060;-43
2023/01/16 05:06:37;;;;;;;4.55;1.42;;;;;;;7.58;69.03;98840.50;5024373;28;20128;-42
2023/01/16 05:09:04;;;;;;;5.53;1.65;;;;;;;7.74;68.36;98816.16;5020248;28;20128;-43
2023/01/16 05:11:29;;;;;;;2.65;1.20;;;;;;;7.13;69.59;98801.94;5020456;28;20049;-44
2023/01/16 05:13:55;;;;;;;6.30;1.42;;;;;;;7.74;68.28;98805.78;5018320;28;20037;-42
2023/01/16 05:16:20;;;;;;;6.40;1.60;;;;;;;7.48;68.38;98788.72;5022696;28;20037;-41
2023/01/16 05:18:46;;;;;;;7.13;1.77;;;;;;;7.26;69.43;98785.41;5022706;28;20037;-42
2023/01/16 05:21:11;;;;;;;2.90;1.33;;;;;;;7.03;69.62;98771.75;5018206;28;20909;-46
2023/01/16 05:23:37;;;;;;;4.63;1.50;;;;;;;7.50;68.82;98761.91;5021117;28;20033;-41
2023/01/16 05:26:04;;;;;;;5.07;1.60;;;;;;;7.62;68.61;98750.59;5018357;28;20041;-42
2023/01/16 05:28:30;;;;;;;4.30;1.55;;;;;;;7.82;67.60;98747.78;5022190;28;20033;-44
2023/01/16 05:30:55;;;;;;;5.90;1.40;;;;;;;7.66;67.80;98745.38;5019907;28;20048;-42
2023/01/16 05:33:21;;;;;;;4.88;1.70;;;;;;;7.20;69.37;98734.50;5025596;28;20038;-42
2023/01/16 05:35:46;;;;;;;5.95;1.73;;;;;;;7.18;69.60;98732.78;5024416;28;20499;-43
2023/01/16 05:38:13;;;;;;;6.60;1.95;;;;;;;7.48;68.51;98723.91;5021443;28;20084;-41
2023/01/16 05:40:38;;;;;;;6.72;1.80;;;;;;;7.49;68.80;98728.22;5024145;28;20034;-42
2023/01/16 05:43:04;;;;;;;6.47;1.67;;;;;;;7.37;69.79;98712.78;5020824;28;20111;-43
2023/01/16 05:45:29;;;;;;;5.95;1.45;;;;;;;7.69;68.38;98705.56;5025396;28;20111;-42
2023/01/16 05:47:54;;;;;;;5.75;1.80;;;;;;;7.20;69.79;98684.38;5021361;28;20033;-41
2023/01/16 05:50:20;;;;;;;5.50;2.00;;;;;;;7.43;69.76;98699.78;5024962;28;20052;-45
2023/01/16 05:52:45;;;;;;;6.95;1.73;;;;;;;7.06;70.75;98686.25;5022484;28;20496;-44
2023/01/16 05:55:12;;;;;;;5.88;1.80;;;;;;;7.29;69.89;98681.72;5018625;28;20044;-44
2023/01/16 05:57:37;;;;;;;6.68;1.60;;;;;;;7.33;70.43;98673.91;5022691;28;20038;-45
2023/01/16 06:00:04;;;;;;;5.60;1.77;;;;;;;7.63;69.40;98677.94;5018606;28;20120;-42
2023/01/16 06:02:29;;;;;;;5.07;1.83;;;;;;;7.30;70.66;98663.59;5021477;28;20048;-43
2023/01/16 06:04:55;;;;;;;7.20;1.63;;;;;;;7.46;70.67;98660.84;5017868;28;20037;-44
2023/01/16 06:07:21;;;;;;;5.50;1.70;;;;;;;7.10;72.06;98654.25;5022655;28;20038;-45
2023/01/16 06:09:46;;;;;;;7.00;2.03;;;;;;;7.19;71.90;98649.00;5040847;28;20088;-42
2023/01/16 06:12:16;;;;;;;6.30;1.80;;;;;;;7.07;72.06;98642.19;5018911;28;20040;-41
2023/01/16 06:14:43;;;;;;;4.90;1.70;;;;;;;7.33;72.02;98641.94;5021690;28;20236;-41
2023/01/16 06:17:09;;;;;;;4.57;1.55;;;;;;;7.62;70.60;98631.31;5017295;28;20041;-42
2023/01/16 06:19:34;;;;;;;6.13;1.92;;;;;;;7.64;70.83;98627.81;5021864;28;20033;-43
2023/01/16 06:21:59;;;;;;;7.20;2.00;;;;;;;7.62;71.25;98626.13;5016674;28;20244;-41
2023/01/16 06:24:25;;;;;;;4.00;1.60;;;;;;;7.66;71.28;98610.50;5021322;28;20030;-40
2023/01/16 06:26:50;;;;;;;7.53;1.70;;;;;;;7.32;72.25;98604.81;5021599;28;20050;-41
2023/01/16 06:29:15;;;;;;;7.28;1.80;;;;;;;7.65;71.57;98594.97;5016961;28;20033;-42
2023/01/16 06:31:41;;;;;;;7.45;1.70;;;;;;;7.23;73.01;98594.53;5021055;28;20042;-44
2023/01/16 06:34:06;;;;;;;6.70;1.65;;;;;;;7.84;71.49;98587.81;5018306;28;20596;-40
2023/01/16 06:36:31;;;;;;;5.07;1.75;;;;;;;7.72;72.24;98579.31;5021160;28;20038;-45
2023/01/16 06:38:57;;;;;;;3.80;1.52;;;;;;;7.67;72.46;98570.75;5017230;28;20253;-45
2023/01/16 06:41:22;;;;;;;3.97;1.70;;;;;;;7.73;71.93;98565.47;5024088;28;20483;-43
2023/01/16 06:43:47;;;;;;;6.07;1.77;;;;;;;7.75;72.22;98557.66;5024855;28;20037;-42
2023/01/16 06:46:13;;;;;;;6.90;2.15;;;;;;;7.66;72.32;98553.47;5020739;28;20471;-40
2023/01/16 06:48:38;;;;;;;5.40;1.60;;;;;;;7.29;73.96;98549.56;5024233;28;20124;-46
2023/01/16 06:51:03;;;;;;;5.18;1.80;;;;;;;7.52;73.75;98532.00;5020783;28;20038;-44
2023/01/16 06:53:29;;;;;;;5.05;1.60;;;;;;;7.49;73.45;98529.47;5023687;28;20466;-43
2023/01/16 06:55:54;;;;;;;6.38;1.73;;;;;;;7.63;73.76;98516.31;5021534;28;20529;-43
2023/01/16 06:58:19;;;;;;;5.55;1.88;;;;;;;7.49;73.76;98515.66;5046800;22;20050;-47
2023/01/16 07:00:45;;;;;;;7.53;1.88;;;;;;;7.20;74.67;98501.25;5025054;28;20040;-47
2023/01/16 07:03:10;;;;;;;4.65;1.65;;;;;;;7.41;74.03;98486.34;5024691;28;20523;-43
2023/01/16 07:05:36;;;;;;;9.88;1.92;;;;;;;7.50;73.40;98492.28;5029102;28;20109;-45
2023/01/16 07:08:02;;;;;;;6.95;1.75;;;;;;;7.38;73.94;98473.44;5024202;28;20036;-45
2023/01/16 07:10:27;;;;;;;6.80;1.50;;;;;;;7.08;74.38;98459.94;5004118;28;20497;-46
2023/01/16 07:12:53;;;;;;;4.40;1.40;;;;;;;7.21;74.20;98456.34;5001432;28;20042;-42
2023/01/16 07:23:39;;;;;;;6.10;1.20;;;;;;;7.23;74.68;98414.88;5001733;28;20196;-45
2023/01/16 07:26:07;;;;;;;6.43;1.50;;;;;;;7.03;75.50;98412.50;5001281;28;20037;-44
2023/01/16 07:28:33;;;;;;;5.50;1.48;;;;;;;7.46;73.77;98402.47;5005456;28;20038;-46
2023/01/16 07:30:58;;;;;;;4.75;1.38;;;;;;;7.64;73.09;98402.22;5000248;28;20508;-46
2023/01/16 07:33:24;;;;;;;6.00;1.60;;;;;;;7.34;73.88;98387.06;5005211;28;20049;-46
2023/01/16 07:35:49;;;;;;;6.25;1.70;;;;;;;7.33;74.23;98375.84;5004928;28;20034;-45
2023/01/16 07:38:14;;;;;;;5.28;1.67;;;;;;;7.36;74.12;98372.38;5001172;28;20038;-45
2023/01/16 07:40:40;;;;;;;7.05;1.50;;;;;;;7.46;74.01;98367.91;5004116;28;20428;-41
2023/01/16 07:43:06;;;;;;;4.45;1.55;;;;;;;7.55;73.69;98353.09;5001158;28;20520;-45
2023/01/16 07:45:31;;;;;;;3.83;1.58;;;;;;;7.54;73.93;98347.91;5005000;28;20038;-45
2023/01/16 07:47:56;;;;;;;7.80;2.00;;;;;;;7.61;73.64;98347.81;5000810;28;20041;-43
2023/01/16 07:50:22;;;;;;;6.63;1.88;;;;;;;7.83;73.08;98337.09;5003296;28;20563;-44
2023/01/16 07:52:47;;;;;;;4.82;1.85;;;;;;;7.53;74.39;98325.47;5004407;28;20064;-44
2023/01/16 07:55:13;;;;;;;7.45;1.67;;;;;;;7.43;74.21;98331.69;5001065;28;20030;-44
2023/01/16 07:57:39;;;;;;;6.50;1.80;;;;;;;7.32;74.54;98318.84;5004925;28;20142;-43
2023/01/16 08:00:06;;;;;;;4.35;1.90;;;;;;;7.55;74.34;98305.56;4999529;28;20478;-43
2023/01/16 08:02:31;;;;;;;6.90;1.88;;;;;;;7.78;73.19;98306.06;5004240;28;20041;-43
2023/01/16 08:04:57;;;;;;;5.43;1.90;;;;;;;7.12;75.19;98294.97;5001042;28;20050;-45
2023/01/16 08:07:22;;;;;;;3.35;1.60;;;;;;;7.81;73.12;98289.59;5004521;28;20317;-46
2023/01/16 08:09:48;;;;;;;6.80;1.90;;;;;;;7.57;73.53;98280.44;5003359;28;20061;-43
2023/01/16 08:12:13;;;;;;;4.78;1.75;;;;;;;7.56;73.81;98276.16;4999658;28;20038;-45
2023/01/16 08:14:39;;;;;;;4.97;1.90;;;;;;;7.48;74.54;98268.50;5003696;28;20042;-45
2023/01/16 08:17:04;;;;;;;4.60;1.70;;;;;;;7.79;73.16;98262.81;5000108;28;20608;-43
2023/01/16 08:19:30;;;;;;;5.07;1.80;;;;;;;7.35;74.34;98266.97;5003988;28;20623;-44
2023/01/16 08:21:55;;;;;;;5.60;1.85;;;;;;;7.43;73.91;98254.78;4999138;28;20042;-45
2023/01/16 08:24:21;;;;;;;5.68;2.08;;;;;;;7.09;75.62;98257.00;5003793;28;20045;-42
2023/01/16 08:26:47;;;;;;;4.72;2.00;;;;;;;7.54;73.87;98247.66;5003551;28;20042;-44
2023/01/16 08:29:12;;;;;;;4.60;1.50;;;;;;;7.19;74.67;98250.81;5000102;28;20081;-44
2023/01/16 08:31:38;;;;;;;5.43;1.75;;;;;;;7.09;75.76;98254.41;5002296;28;20057;-43
2023/01/16 08:34:03;;;;;;;3.95;1.63;;;;;;;7.21;75.05;98249.03;5000064;28;20120;-45
2023/01/16 08:36:29;;;;;;;4.75;1.60;;;;;;;7.08;75.89;98250.09;5003828;28;20385;-42
2023/01/16 08:38:54;;;;;;;7.15;1.85;;;;;;;7.00;75.86;98228.66;5002790;28;20050;-46
2023/01/16 08:52:30;;;;;;;3.92;1.80;;;;;;;7.28;75.08;98191.06;4999154;28;20045;-40
2023/01/16 08:54:59;;;;;;;4.63;1.77;;;;;;;7.31;75.20;98195.34;5003439;28;20037;-41
2023/01/16 08:57:27;;;;;;;3.15;1.73;;;;;;;7.29;74.75;98186.75;4999563;28;20041;-43
2023/01/16 08:59:53;;;;;;;3.63;1.67;;;;;;;7.71;73.37;98179.97;5003484;28;20053;-44
2023/01/16 09:02:19;;;;;;;3.70;1.50;;;;;;;7.64;73.86;98183.53;4998888;28;20037;-45
2023/01/16 09:04:44;;;;;;;3.88;1.73;;;;;;;7.67;73.65;98178.31;5003260;28;20061;-43
2023/01/16 09:07:10;;;;;;;3.40;1.63;;;;;;;7.93;73.24;98177.84;4999273;28;20125;-44
2023/01/16 09:09:35;;;;;;;5.00;2.00;;;;;;;7.92;72.86;98173.53;5003307;28;20041;-45
2023/01/16 09:14:45;;;;;;;5.25;1.90;;;;;;;7.50;74.59;98162.22;5003646;28;20088;-43
2023/01/16 09:17:11;;;;;;;4.22;1.80;;;;;;;7.65;74.29;98151.53;4999924;28;20069;-44
2023/01/16 09:19:36;;;;;;;4.45;1.70;;;;;;;7.66;73.58;98153.25;5003717;28;20507;-49
2023/01/16 09:22:05;;;;;;;3.15;1.80;;;;;;;7.78;73.96;98142.66;5002498;28;20427;-44
2023/01/16 09:24:31;;;;;;;5.07;1.48;;;;;;;7.43;75.01;98132.09;4999526;28;20041;-45
2023/01/16 09:26:56;;;;;;;4.15;1.90;;;;;;;7.65;74.72;98133.41;5002792;28;20044;-43
2023/01/16 09:29:21;;;;;;;3.35;1.83;;;;;;;8.07;72.97;98144.69;4999647;28;20037;-44
2023/01/16 09:31:49;;;;;;;3.90;2.00;;;;;;;7.72;74.52;98135.84;5006263;28;20108;-45
2023/01/16 09:34:14;;;;;;;4.05;2.00;;;;;;;8.05;73.60;98136.91;5002687;28;20038;-43
2023/01/16 09:36:39;;;;;;;3.88;1.83;;;;;;;8.12;72.88;98133.31;5005824;28;20034;-43
2023/01/16 09:39:05;;;;;;;3.60;1.98;;;;;;;8.21;73.02;98121.91;5005338;28;20033;-41
2023/01/16 09:44:24;;;;;;;5.45;1.90;;;;;;;8.11;73.71;98117.81;5000745;28;20133;-41
2023/01/16 09:46:52;;;;;;;5.40;2.20;;;;;;;8.30;72.57;98106.16;5003774;28;20116;-45
2023/01/16 09:49:25;;;;;;;4.28;1.98;;;;;;;8.08;73.25;98107.47;5000589;28;20560;-44
2023/01/16 10:00:19;;;;;;;4.95;2.20;;;;;;;8.38;72.57;98093.88;4993160;28;20088;-42
2023/01/16 10:02:45;;;;;;;3.65;2.05;;;;;;;8.24;73.18;98089.81;5000086;28;20034;-44
2023/01/16 10:05:13;;;;;;;6.13;2.13;;;;;;;8.10;73.32;98085.81;5002925;28;20037;-45
2023/01/16 10:07:38;;;;;;;3.08;2.03;;;;;;;8.02;73.78;98081.66;5004291;28;20067;-43
2023/01/16 10:10:22;;;;;;;4.00;2.30;;;;;;;8.09;73.64;98078.91;5000796;28;20072;-43
2023/01/16 10:13:28;;;;;;;4.78;2.00;;;;;;;8.01;73.89;98069.56;4998836;28;20428;-44
2023/01/16 10:15:56;;;;;;;4.20;2.15;;;;;;;8.11;73.05;98063.31;4978294;28;20042;-41
2023/01/16 10:18:50;;;;;;;5.10;2.40;;;;;;;8.01;73.66;98061.78;5002666;28;20046;-44
2023/01/16 10:21:41;;;;;;;3.95;2.20;;;;;;;8.00;74.59;98065.25;5006115;28;20080;-46
2023/01/16 10:24:12;;;;;;;3.83;2.20;;;;;;;8.46;72.67;98057.34;5002463;28;20052;-43
2023/01/16 10:26:56;;;;;;;4.25;2.50;;;;;;;8.38;72.88;98054.94;5006160;28;20052;-48
2023/01/16 10:29:36;;;;;;;4.30;2.20;;;;;;;8.29;73.20;98057.72;5001970;28;20045;-43
2023/01/16 10:32:25;;;;;;;3.28;2.25;;;;;;;8.28;73.63;98053.41;5000892;28;20042;-44
2023/01/16 10:35:26;;;;;;;4.32;2.60;;;;;;;8.21;73.75;98048.38;5005685;28;20177;-45
2023/01/16 10:37:54;;;;;;;4.88;2.47;;;;;;;8.49;72.99;98034.75;4998846;28;20064;-41
2023/01/16 10:40:25;;;;;;;4.13;2.30;;;;;;;8.33;73.07;98033.41;5002986;28;20034;-44
2023/01/16 10:49:30;;;;;;;4.47;2.40;;;;;;;8.50;72.96;98020.03;5003555;28;20049;-39
2023/01/16 10:51:48;;;;;;;5.03;2.50;;;;;;;8.48;72.74;98020.06;5000524;28;20124;-43
2023/01/16 10:54:14;;;;;;;5.32;2.50;;;;;;;8.26;73.73;98012.78;5002009;28;20118;-44
2023/01/16 10:56:41;;;;;;;3.15;2.30;;;;;;;8.40;73.11;98010.78;5006515;28;20064;-44
2023/01/16 10:59:10;;;;;;;3.78;2.38;;;;;;;8.70;72.82;98009.19;5002762;28;20041;-45
2023/01/16 11:01:36;;;;;;;4.88;2.50;;;;;;;8.74;72.80;98005.59;5005712;28;20030;-48
2023/01/16 11:04:09;;;;;;;4.70;2.40;;;;;;;8.65;72.75;98008.44;5002753;28;20034;-48
2023/01/16 11:06:35;;;;;;;5.05;2.58;;;;;;;8.62;72.91;98004.16;5005904;28;20034;-45
2023/01/16 11:09:08;;;;;;;5.47;2.35;;;;;;;8.58;73.48;97996.50;5001542;28;20029;-46
2023/01/16 11:20:26;;;;;;;3.83;2.50;;;;;;;8.80;72.43;97975.13;5001207;28;20419;-43
2023/01/16 11:22:58;;;;;;;5.93;2.90;;;;;;;8.79;72.48;97977.75;5005516;28;20523;-42
2023/01/16 11:25:25;;;;;;;4.68;2.38;;;;;;;8.66;72.76;97971.19;5001151;28;20512;-45
2023/01/16 11:27:52;;;;;;;5.60;2.50;;;;;;;8.88;72.05;97965.41;5005088;28;20510;-46
2023/01/16 11:30:27;;;;;;;3.92;2.35;;;;;;;8.88;72.27;97965.41;5000787;28;20057;-45
2023/01/16 11:32:54;;;;;;;4.22;2.63;;;;;;;8.94;72.34;97959.19;5005027;28;20042;-41
2023/01/16 11:35:20;;;;;;;4.78;2.45;;;;;;;9.34;70.81;97958.94;5002680;28;20079;-49
2023/01/16 11:37:50;;;;;;;4.45;2.20;;;;;;;9.46;70.63;97952.53;5001713;28;20049;-48
2023/01/16 11:40:22;;;;;;;4.25;2.33;;;;;;;9.53;70.51;97941.91;5000619;28;20412;-44
2023/01/16 11:46:03;;;;;;;4.10;2.50;;;;;;;9.39;70.74;97941.50;5006444;28;20041;-45
2023/01/16 11:48:44;;;;;;;4.72;2.50;;;;;;;9.62;70.04;97925.19;5006785;28;20069;-48
2023/01/16 11:51:16;;;;;;;6.22;2.40;;;;;;;9.72;69.60;97929.22;5000514;28;20045;-44
2023/01/16 11:53:45;;;;;;;4.50;2.40;;;;;;;9.81;69.42;97915.94;5004782;28;20038;-44
2023/01/16 11:56:26;;;;;;;3.67;2.40;;;;;;;9.57;70.57;97916.69;5003730;28;20465;-43
2023/01/16 11:59:06;;;;;;;3.63;2.15;;;;;;;9.58;70.54;97910.56;5004812;28;20091;-41
2023/01/16 12:05:53;;;;;;;1.98;1.38;;;;;;;9.85;68.30;97906.28;5001069;28;20123;-48
2023/01/16 12:07:39;;;;;;;1.92;1.30;;;;;;;9.80;68.57;97906.44;5002415;28;20061;-47
2023/01/16 12:10:29;;;;;;;1.85;1.33;;;;;;;9.68;68.76;97896.41;5003388;28;20030;-40
2023/01/16 12:15:52;;;;;;;;;;;;;;;10.01;67.27;97891.88;5003656;28;20099;-42
2023/01/16 12:18:32;;;;;;;1.77;1.15;;;;;;;10.36;66.79;97893.41;5000313;28;19952;-48
2023/01/16 12:21:02;;;;;;;2.67;1.55;;;;;;;9.92;67.44;97879.19;4999623;28;20068;-47
2023/01/16 12:23:51;;;;;;;2.92;1.42;;;;;;;10.10;66.82;97881.19;5003944;28;20179;-43
2023/01/16 12:26:28;;;;;;;3.05;1.40;;;;;;;10.24;66.75;97872.97;5001321;28;20152;-41
2023/01/16 12:29:35;;;;;;;3.00;1.50;;;;;;;10.25;66.82;97875.50;5002431;28;20083;-42
2023/01/16 12:32:20;;;;;;;2.05;1.45;;;;;;;10.26;66.85;97877.22;5015678;28;20080;-44
2023/01/16 12:35:06;;;;;;;2.65;1.40;;;;;;;10.55;66.09;97866.66;5025027;28;20084;-47
2023/01/16 12:38:05;;;;;;;2.88;1.45;;;;;;;10.64;66.70;97859.44;5020870;28;20049;-43
2023/01/16 12:43:57;;;;;;;1.83;1.20;;;;;;;10.51;65.55;97857.25;5020564;28;20099;-44
2023/01/16 12:46:34;;;;;;;2.35;1.40;;;;;;;10.65;65.17;97855.94;5023826;28;20057;-43
2023/01/16 12:49:35;;;;;;;2.88;1.30;;;;;;;10.53;65.14;97852.84;5020502;28;20138;-45
2023/01/16 12:52:27;;;;;;;2.65;1.60;;;;;;;10.43;65.45;97848.84;5020424;28;20029;-43
2023/01/16 12:55:17;;;;;;;3.00;1.30;;;;;;;10.32;66.08;97845.75;5022512;28;20033;-42
2023/01/16 12:57:45;;;;;;;3.65;1.50;;;;;;;10.20;66.28;97835.75;5020741;28;20041;-45
2023/01/16 13:00:17;;;;;;;1.73;1.40;;;;;;;10.32;65.59;97837.94;5021353;22;20095;-38
2023/01/16 13:02:56;;;;;;;2.08;1.30;;;;;;;10.45;65.07;97828.81;4981738;28;20030;-44